Time;durP1;ratioP1;P1;durP2;ratioP2;P2;SDS_P1;SDS_P2;PMS_P1;PMS_P2;Temp;Humidity;BMP_temperature;BMP_pressure;BME280_temperature;BME280_humidity;BME280_pressure;Samples;Min_cycle;Max_cycle;Signal;HPM_P1;HPM_P2
2024/01/28 00:01:35;;;;;;;16.48;8.55;;;;;;;;;;5865341;28;20499;-78
2024/01/28 00:04:26;;;;;;;23.83;11.68;;;;;;;;;;5865094;28;20495;-78
2024/01/28 00:07:17;;;;;;;34.53;15.73;;;;;;;;;;5866206;28;20042;-78
2024/01/28 00:10:08;;;;;;;30.10;13.00;;;;;;;;;;5848563;28;20499;-78
2024/01/28 00:12:59;;;;;;;23.38;12.20;;;;;;;;;;5865299;28;20076;-78
2024/01/28 00:15:52;;;;;;;24.38;10.00;;;;;;;;;;5842017;28;20050;-78
2024/01/28 00:18:44;;;;;;;33.67;11.25;;;;;;;;;;5863719;28;20434;-78
2024/01/28 00:21:35;;;;;;;19.83;9.38;;;;;;;;;;5864677;28;20052;-78
2024/01/28 00:24:27;;;;;;;16.77;6.25;;;;;;;;;;5865724;28;20180;-78
2024/01/28 00:27:18;;;;;;;13.13;5.78;;;;;;;;;;5848665;28;20123;-78
2024/01/28 00:30:10;;;;;;;9.80;5.30;;;;;;;;;;5865801;28;20057;-78
2024/01/28 00:33:01;;;;;;;6.53;5.68;;;;;;;;;;5865872;28;20140;-78
2024/01/28 00:35:53;;;;;;;9.60;4.45;;;;;;;;;;5866162;28;20049;-79
2024/01/28 00:38:43;;;;;;;11.25;6.15;;;;;;;;;;5847746;28;20103;-78
2024/01/28 00:41:34;;;;;;;8.70;5.57;;;;;;;;;;5864634;28;20068;-78
2024/01/28 00:44:27;;;;;;;22.13;7.15;;;;;;;;;;5848051;28;20049;-79
2024/01/28 00:47:18;;;;;;;8.80;4.45;;;;;;;;;;5864013;28;20057;-78
2024/01/28 00:50:09;;;;;;;4.22;2.97;;;;;;;;;;5847819;28;20049;-78
2024/01/28 00:53:01;;;;;;;15.75;5.30;;;;;;;;;;5863899;28;20045;-77
2024/01/28 00:55:51;;;;;;;11.32;5.82;;;;;;;;;;5864388;28;20048;-78
2024/01/28 00:58:43;;;;;;;10.85;5.90;;;;;;;;;;5847251;28;20062;-79
2024/01/28 01:01:34;;;;;;;4.18;3.42;;;;;;;;;;5839999;28;20061;-78
2024/01/28 01:04:25;;;;;;;13.15;5.95;;;;;;;;;;5853265;28;20114;-78
2024/01/28 01:07:16;;;;;;;20.60;6.22;;;;;;;;;;5819157;28;20047;-78
2024/01/28 01:10:08;;;;;;;7.70;4.80;;;;;;;;;;5842086;28;20046;-79
2024/01/28 01:12:59;;;;;;;4.45;3.85;;;;;;;;;;5819690;28;20065;-78
2024/01/28 01:15:50;;;;;;;9.32;5.45;;;;;;;;;;5818983;28;20042;-78
2024/01/28 01:18:40;;;;;;;6.70;4.47;;;;;;;;;;5817235;28;20543;-79
2024/01/28 01:21:31;;;;;;;6.63;3.05;;;;;;;;;;5817647;28;20412;-79
2024/01/28 01:24:24;;;;;;;7.68;4.82;;;;;;;;;;5817268;28;20136;-79
2024/01/28 01:27:14;;;;;;;15.00;4.78;;;;;;;;;;5818657;28;20046;-79
2024/01/28 01:30:06;;;;;;;9.48;4.82;;;;;;;;;;5833782;28;20392;-79
2024/01/28 01:32:57;;;;;;;6.32;3.97;;;;;;;;;;5817691;28;20100;-78
2024/01/28 01:35:48;;;;;;;8.70;2.90;;;;;;;;;;5818617;28;20060;-79
2024/01/28 01:38:39;;;;;;;8.10;3.95;;;;;;;;;;5817157;28;20043;-78
2024/01/28 01:41:30;;;;;;;5.85;3.72;;;;;;;;;;5817315;28;20050;-78
2024/01/28 01:44:21;;;;;;;5.18;2.75;;;;;;;;;;5800866;28;20447;-79
2024/01/28 01:47:12;;;;;;;8.00;3.92;;;;;;;;;;5818337;28;20101;-78
2024/01/28 01:50:04;;;;;;;8.98;4.57;;;;;;;;;;5817249;28;20428;-78
2024/01/28 01:52:55;;;;;;;4.43;2.53;;;;;;;;;;5818692;28;20415;-78
2024/01/28 01:55:46;;;;;;;3.45;2.33;;;;;;;;;;5816577;28;20042;-78
2024/01/28 01:58:37;;;;;;;2.90;2.60;;;;;;;;;;5816556;28;20389;-78
2024/01/28 02:01:30;;;;;;;4.30;2.42;;;;;;;;;;5816539;28;20042;-78
2024/01/28 02:04:21;;;;;;;6.40;2.83;;;;;;;;;;5800648;28;20054;-78
2024/01/28 02:07:12;;;;;;;7.75;3.13;;;;;;;;;;5816622;28;20049;-78
2024/01/28 02:10:05;;;;;;;14.00;3.65;;;;;;;;;;5816669;28;20065;-77
2024/01/28 02:12:55;;;;;;;2.13;1.95;;;;;;;;;;5816866;28;20050;-78
2024/01/28 02:15:46;;;;;;;11.32;3.38;;;;;;;;;;5816493;28;20088;-78
2024/01/28 02:18:37;;;;;;;5.55;2.72;;;;;;;;;;5816484;28;20487;-77
2024/01/28 02:21:28;;;;;;;13.10;4.28;;;;;;;;;;5816308;28;20128;-78
2024/01/28 02:24:19;;;;;;;1.95;1.83;;;;;;;;;;5817428;28;20090;-78
2024/01/28 02:27:10;;;;;;;1.70;1.60;;;;;;;;;;5816039;28;20456;-77
2024/01/28 02:30:02;;;;;;;4.20;2.20;;;;;;;;;;5816029;28;20093;-78
2024/01/28 02:32:53;;;;;;;3.17;2.67;;;;;;;;;;5800687;28;20464;-77
2024/01/28 02:35:44;;;;;;;6.95;4.05;;;;;;;;;;5815884;28;20050;-77
2024/01/28 02:38:34;;;;;;;4.38;2.75;;;;;;;;;;5815861;28;20050;-78
2024/01/28 02:41:25;;;;;;;20.73;3.70;;;;;;;;;;5817254;28;20053;-78
2024/01/28 02:44:16;;;;;;;4.72;3.80;;;;;;;;;;5831932;28;20043;-77
2024/01/28 02:47:07;;;;;;;6.85;3.10;;;;;;;;;;5815839;28;20504;-77
2024/01/28 02:49:57;;;;;;;11.45;2.47;;;;;;;;;;5816040;28;20053;-77
2024/01/28 02:52:48;;;;;;;5.05;3.03;;;;;;;;;;5815433;28;20038;-77
2024/01/28 02:55:39;;;;;;;9.40;2.50;;;;;;;;;;5815591;28;20057;-77
2024/01/28 02:58:30;;;;;;;5.07;4.10;;;;;;;;;;5815375;28;20051;-77
2024/01/28 03:01:21;;;;;;;4.20;2.78;;;;;;;;;;5831668;28;20054;-77
2024/01/28 03:04:13;;;;;;;4.30;3.80;;;;;;;;;;5815560;28;20434;-77
2024/01/28 03:07:04;;;;;;;5.53;3.85;;;;;;;;;;5815603;28;20042;-77
2024/01/28 03:09:55;;;;;;;6.70;3.95;;;;;;;;;;5815906;28;20061;-77
2024/01/28 03:12:49;;;;;;;5.60;2.75;;;;;;;;;;5816651;28;20046;-77
2024/01/28 03:15:40;;;;;;;1.75;1.58;;;;;;;;;;5815756;28;20046;-77
2024/01/28 03:18:31;;;;;;;5.22;3.42;;;;;;;;;;5798942;28;20057;-77
2024/01/28 03:21:22;;;;;;;2.47;1.88;;;;;;;;;;5816564;28;20042;-77
2024/01/28 03:24:12;;;;;;;4.38;3.35;;;;;;;;;;5815114;28;20050;-77
2024/01/28 03:27:04;;;;;;;2.20;2.03;;;;;;;;;;5816107;28;20125;-77
2024/01/28 03:29:54;;;;;;;9.88;3.10;;;;;;;;;;5799811;28;20054;-77
2024/01/28 03:32:46;;;;;;;5.35;2.20;;;;;;;;;;5816419;28;20412;-77
2024/01/28 03:35:41;;;;;;;4.53;2.53;;;;;;;;;;5815229;28;20046;-77
2024/01/28 03:38:31;;;;;;;10.00;3.33;;;;;;;;;;5814932;28;20047;-77
2024/01/28 03:41:22;;;;;;;3.92;2.45;;;;;;;;;;5816289;28;20058;-77
2024/01/28 03:44:19;;;;;;;3.55;2.25;;;;;;;;;;5816214;28;20046;-77
2024/01/28 03:47:10;;;;;;;3.53;2.55;;;;;;;;;;5816384;28;20042;-77
2024/01/28 03:50:01;;;;;;;6.43;2.55;;;;;;;;;;5815455;28;20050;-77
2024/01/28 03:52:52;;;;;;;2.67;2.38;;;;;;;;;;5815359;28;20129;-77
2024/01/28 03:55:45;;;;;;;4.78;2.80;;;;;;;;;;5814792;28;20043;-77
2024/01/28 03:58:36;;;;;;;3.28;2.08;;;;;;;;;;5814784;28;20066;-77
2024/01/28 04:01:33;;;;;;;4.88;2.65;;;;;;;;;;5816049;28;20057;-77
2024/01/28 04:04:25;;;;;;;6.07;4.20;;;;;;;;;;5814855;28;20054;-77
2024/01/28 04:07:16;;;;;;;7.55;5.63;;;;;;;;;;5814611;28;20046;-77
2024/01/28 04:10:07;;;;;;;8.52;5.93;;;;;;;;;;5814518;28;20097;-77
2024/01/28 04:12:58;;;;;;;5.65;3.53;;;;;;;;;;5816367;28;20194;-77
2024/01/28 04:15:49;;;;;;;8.85;2.28;;;;;;;;;;5815846;28;20046;-77
2024/01/28 04:18:40;;;;;;;8.05;3.35;;;;;;;;;;5814408;28;20133;-77
2024/01/28 04:21:32;;;;;;;3.92;3.08;;;;;;;;;;5815912;28;20050;-77
2024/01/28 04:24:23;;;;;;;7.22;1.88;;;;;;;;;;5814173;28;20050;-77
2024/01/28 04:27:14;;;;;;;3.35;1.85;;;;;;;;;;5814206;28;20085;-77
2024/01/28 04:30:06;;;;;;;9.60;2.20;;;;;;;;;;5815871;28;20046;-77
2024/01/28 04:32:57;;;;;;;1.63;1.52;;;;;;;;;;5815002;28;20070;-77
2024/01/28 04:35:48;;;;;;;2.60;1.42;;;;;;;;;;5814288;28;20046;-77
2024/01/28 04:38:38;;;;;;;1.85;1.10;;;;;;;;;;5815701;28;20050;-77
2024/01/28 04:41:29;;;;;;;9.05;3.05;;;;;;;;;;5818267;28;20053;-77
2024/01/28 04:44:21;;;;;;;4.90;2.53;;;;;;;;;;5834462;28;20054;-77
2024/01/28 04:47:11;;;;;;;3.38;2.65;;;;;;;;;;5819512;28;20042;-77
2024/01/28 04:50:02;;;;;;;2.85;2.00;;;;;;;;;;5819719;28;20053;-77
2024/01/28 04:52:53;;;;;;;1.13;0.93;;;;;;;;;;5818734;28;20054;-77
2024/01/28 04:55:44;;;;;;;1.95;1.80;;;;;;;;;;5819244;28;20636;-77
2024/01/28 04:58:35;;;;;;;1.80;1.70;;;;;;;;;;5818192;28;20038;-77
2024/01/28 05:01:26;;;;;;;7.13;1.40;;;;;;;;;;5819456;28;20368;-77
2024/01/28 05:04:16;;;;;;;5.43;2.15;;;;;;;;;;5819097;28;20058;-77
2024/01/28 05:07:07;;;;;;;0.88;0.88;;;;;;;;;;5817842;28;20053;-77
2024/01/28 05:09:58;;;;;;;4.22;2.05;;;;;;;;;;5818353;28;20519;-77
2024/01/28 05:12:49;;;;;;;1.23;1.13;;;;;;;;;;5819082;28;20050;-77
2024/01/28 05:15:40;;;;;;;2.35;2.15;;;;;;;;;;5817864;28;20056;-77
2024/01/28 05:18:31;;;;;;;2.75;1.77;;;;;;;;;;5817594;28;20121;-77
2024/01/28 05:21:25;;;;;;;1.55;1.25;;;;;;;;;;5818831;28;20049;-77
2024/01/28 05:24:16;;;;;;;5.93;0.85;;;;;;;;;;5833753;28;20096;-77
2024/01/28 05:27:08;;;;;;;8.27;1.75;;;;;;;;;;5817496;28;20077;-78
2024/01/28 05:29:59;;;;;;;2.10;1.13;;;;;;;;;;5818981;28;20050;-78
2024/01/28 05:32:50;;;;;;;1.10;1.00;;;;;;;;;;5825632;28;20142;-78
2024/01/28 05:35:41;;;;;;;2.70;1.98;;;;;;;;;;5818792;28;20121;-78
2024/01/28 05:38:32;;;;;;;0.75;0.75;;;;;;;;;;5817338;28;20525;-78
2024/01/28 05:41:22;;;;;;;0.80;0.80;;;;;;;;;;5817338;28;20416;-78
2024/01/28 05:44:13;;;;;;;3.50;1.75;;;;;;;;;;5800925;28;20397;-77
2024/01/28 05:47:05;;;;;;;1.63;1.17;;;;;;;;;;5818546;28;20046;-78
2024/01/28 05:49:56;;;;;;;1.83;1.63;;;;;;;;;;5817102;28;20061;-78
2024/01/28 05:52:47;;;;;;;1.98;1.65;;;;;;;;;;5817116;28;20046;-78
2024/01/28 05:55:37;;;;;;;1.63;0.68;;;;;;;;;;5817003;28;20046;-78
2024/01/28 05:58:28;;;;;;;3.83;1.88;;;;;;;;;;5816966;28;20523;-78
2024/01/28 06:01:19;;;;;;;2.17;1.60;;;;;;;;;;5818016;28;20520;-78
2024/01/28 06:04:10;;;;;;;2.22;1.50;;;;;;;;;;5833296;28;20054;-78
2024/01/28 06:07:01;;;;;;;2.03;1.85;;;;;;;;;;5816762;28;20416;-78
2024/01/28 06:09:52;;;;;;;1.63;1.52;;;;;;;;;;5817170;28;20046;-78
2024/01/28 06:12:43;;;;;;;3.97;1.70;;;;;;;;;;5817829;28;20065;-78
2024/01/28 06:15:34;;;;;;;2.17;1.45;;;;;;;;;;5817782;28;20054;-78
2024/01/28 06:18:25;;;;;;;4.55;3.53;;;;;;;;;;5816320;28;20062;-78
2024/01/28 06:21:16;;;;;;;2.78;1.98;;;;;;;;;;5816507;28;20057;-78
2024/01/28 06:24:07;;;;;;;2.05;1.70;;;;;;;;;;5816359;28;20046;-78
2024/01/28 06:26:58;;;;;;;1.88;1.65;;;;;;;;;;5800725;28;20042;-78
2024/01/28 06:29:49;;;;;;;3.20;1.85;;;;;;;;;;5816085;28;20045;-78
2024/01/28 06:32:40;;;;;;;4.00;1.88;;;;;;;;;;5815922;28;20042;-78
2024/01/28 06:35:31;;;;;;;1.50;1.17;;;;;;;;;;5815906;28;20133;-78
2024/01/28 06:38:21;;;;;;;1.05;1.00;;;;;;;;;;5815549;28;20038;-78
2024/01/28 06:41:14;;;;;;;4.18;1.83;;;;;;;;;;5817069;28;20046;-78
2024/01/28 06:44:05;;;;;;;3.35;2.28;;;;;;;;;;5815873;28;20500;-78
2024/01/28 06:46:55;;;;;;;3.42;2.08;;;;;;;;;;5816215;28;20042;-78
2024/01/28 06:49:50;;;;;;;1.52;1.42;;;;;;;;;;5815684;28;20404;-78
2024/01/28 06:52:42;;;;;;;1.90;1.67;;;;;;;;;;5831861;28;20042;-78
2024/01/28 06:55:33;;;;;;;3.03;2.58;;;;;;;;;;5815702;28;20057;-78
2024/01/28 06:58:24;;;;;;;4.03;2.13;;;;;;;;;;5815400;28;20054;-78
2024/01/28 07:01:15;;;;;;;3.65;1.80;;;;;;;;;;5815359;28;20066;-78
2024/01/28 07:04:06;;;;;;;4.05;2.90;;;;;;;;;;5814913;28;20420;-78
2024/01/28 07:06:57;;;;;;;9.32;3.90;;;;;;;;;;5816129;28;20153;-78
2024/01/28 07:09:48;;;;;;;3.72;2.95;;;;;;;;;;5815262;28;20054;-78
2024/01/28 07:12:39;;;;;;;4.40;1.77;;;;;;;;;;5816669;28;20074;-78
2024/01/28 07:15:30;;;;;;;2.58;2.38;;;;;;;;;;5816630;28;20121;-78
2024/01/28 07:18:21;;;;;;;5.20;3.80;;;;;;;;;;5815160;28;20048;-78
2024/01/28 07:21:13;;;;;;;13.57;5.63;;;;;;;;;;5816419;28;20129;-78
2024/01/28 07:24:04;;;;;;;11.30;6.55;;;;;;;;;;5815280;28;20050;-78
2024/01/28 07:26:58;;;;;;;18.27;7.05;;;;;;;;;;5815728;28;20484;-78
2024/01/28 07:29:49;;;;;;;9.43;6.50;;;;;;;;;;5816691;28;20042;-78
2024/01/28 07:32:40;;;;;;;8.52;4.95;;;;;;;;;;5798978;28;20046;-78
2024/01/28 07:35:31;;;;;;;6.60;4.82;;;;;;;;;;5816551;28;20096;-78
2024/01/28 07:38:21;;;;;;;5.70;3.08;;;;;;;;;;5814999;28;20042;-78
2024/01/28 07:41:14;;;;;;;20.60;12.60;;;;;;;;;;5816392;28;20058;-78
2024/01/28 07:44:05;;;;;;;25.85;17.13;;;;;;;;;;5830973;28;20056;-78
2024/01/28 07:46:56;;;;;;;25.75;15.95;;;;;;;;;;5815441;28;20132;-78
2024/01/28 07:49:47;;;;;;;22.52;8.90;;;;;;;;;;5831096;28;20046;-78
2024/01/28 07:52:38;;;;;;;6.28;3.33;;;;;;;;;;5831058;28;20053;-78
2024/01/28 07:55:29;;;;;;;3.67;3.33;;;;;;;;;;5814522;28;20498;-77
2024/01/28 07:58:19;;;;;;;4.63;3.38;;;;;;;;;;5815975;28;20042;-78
2024/01/28 08:01:10;;;;;;;5.38;3.53;;;;;;;;;;5815802;28;20042;-78
2024/01/28 08:04:01;;;;;;;5.63;3.60;;;;;;;;;;5814835;28;20074;-78
2024/01/28 08:06:52;;;;;;;12.50;8.20;;;;;;;;;;5814875;28;20113;-78
2024/01/28 08:09:43;;;;;;;9.10;4.70;;;;;;;;;;5814598;28;20074;-77
2024/01/28 08:12:34;;;;;;;21.73;5.57;;;;;;;;;;5814468;28;20153;-78
2024/01/28 08:15:25;;;;;;;13.20;6.15;;;;;;;;;;5818440;28;20588;-78
2024/01/28 08:18:15;;;;;;;21.38;8.13;;;;;;;;;;5818957;28;20493;-78
2024/01/28 08:21:07;;;;;;;15.57;7.13;;;;;;;;;;5820010;28;20057;-78
2024/01/28 08:23:57;;;;;;;13.52;7.95;;;;;;;;;;5820709;28;20121;-78
2024/01/28 08:26:48;;;;;;;10.85;9.35;;;;;;;;;;5818709;28;20057;-78
2024/01/28 08:29:39;;;;;;;27.20;16.80;;;;;;;;;;5820134;28;20047;-78
2024/01/28 08:32:30;;;;;;;23.17;18.73;;;;;;;;;;5834864;28;20053;-78
2024/01/28 08:35:21;;;;;;;17.42;15.05;;;;;;;;;;5819690;28;20181;-78
2024/01/28 08:38:12;;;;;;;12.40;7.07;;;;;;;;;;5834595;28;20050;-78
2024/01/28 08:41:03;;;;;;;8.93;6.97;;;;;;;;;;5818361;28;20612;-78
2024/01/28 08:43:54;;;;;;;9.75;6.35;;;;;;;;;;5835193;28;20069;-78
2024/01/28 08:46:46;;;;;;;7.07;5.90;;;;;;;;;;5818119;28;20042;-78
2024/01/28 08:49:37;;;;;;;9.90;5.50;;;;;;;;;;5818217;28;20042;-78
2024/01/28 08:52:28;;;;;;;14.43;6.53;;;;;;;;;;5817983;28;20405;-78
2024/01/28 08:55:18;;;;;;;16.55;9.15;;;;;;;;;;5818126;28;20062;-78
2024/01/28 08:58:09;;;;;;;13.38;8.95;;;;;;;;;;5818057;28;20043;-78
2024/01/28 09:01:00;;;;;;;14.50;8.60;;;;;;;;;;5818530;28;20053;-78
2024/01/28 09:03:51;;;;;;;10.60;7.80;;;;;;;;;;5841051;28;20169;-78
2024/01/28 09:06:42;;;;;;;19.45;11.48;;;;;;;;;;5842133;28;20168;-78
2024/01/28 09:09:33;;;;;;;27.80;13.68;;;;;;;;;;5840909;28;20498;-78
2024/01/28 09:12:24;;;;;;;28.45;16.98;;;;;;;;;;5840437;28;20124;-78
2024/01/28 09:15:15;;;;;;;29.85;20.42;;;;;;;;;;5840644;28;20042;-78
2024/01/28 09:18:06;;;;;;;45.58;27.30;;;;;;;;;;5840479;28;20132;-78
2024/01/28 09:20:58;;;;;;;23.67;12.32;;;;;;;;;;5841122;28;20506;-78
2024/01/28 09:23:49;;;;;;;10.15;7.03;;;;;;;;;;5856683;28;20521;-78
2024/01/28 09:26:40;;;;;;;6.35;4.60;;;;;;;;;;5840813;28;20046;-78
2024/01/28 09:29:36;;;;;;;6.45;3.95;;;;;;;;;;5840723;28;20045;-78
2024/01/28 09:32:27;;;;;;;8.65;2.80;;;;;;;;;;5856345;28;20052;-78
2024/01/28 09:35:18;;;;;;;2.33;2.05;;;;;;;;;;5840002;28;20376;-78
2024/01/28 09:38:09;;;;;;;5.10;3.47;;;;;;;;;;5856425;28;20052;-78
2024/01/28 09:41:16;;;;;;;8.95;3.95;;;;;;;;;;5857034;28;20045;-78
2024/01/28 09:44:07;;;;;;;5.30;4.15;;;;;;;;;;5841589;28;20046;-78
2024/01/28 09:47:00;;;;;;;4.68;3.40;;;;;;;;;;5855915;28;20518;-78
2024/01/28 09:49:52;;;;;;;16.45;4.22;;;;;;;;;;5856924;28;20053;-78
2024/01/28 09:52:43;;;;;;;3.33;2.90;;;;;;;;;;5855858;28;20553;-78
2024/01/28 09:55:34;;;;;;;6.13;3.50;;;;;;;;;;5855928;28;20053;-78
2024/01/28 09:58:25;;;;;;;8.40;6.25;;;;;;;;;;5841026;28;20492;-78
2024/01/28 10:01:16;;;;;;;7.15;4.88;;;;;;;;;;5855658;28;20412;-78
2024/01/28 10:04:07;;;;;;;8.18;4.80;;;;;;;;;;5839533;28;20074;-78
2024/01/28 10:06:59;;;;;;;5.00;4.50;;;;;;;;;;5856245;28;20249;-78
2024/01/28 10:09:50;;;;;;;6.53;4.55;;;;;;;;;;5847866;28;20415;-78
2024/01/28 10:12:42;;;;;;;8.10;5.75;;;;;;;;;;5855399;28;20112;-78
2024/01/28 10:15:33;;;;;;;9.52;5.78;;;;;;;;;;5834917;28;20049;-78
2024/01/28 10:18:25;;;;;;;9.57;6.60;;;;;;;;;;5832678;28;20142;-78
2024/01/28 10:21:16;;;;;;;9.15;6.30;;;;;;;;;;5832151;28;20058;-78
2024/01/28 10:24:16;;;;;;;16.85;8.52;;;;;;;;;;5832652;28;20081;-78
2024/01/28 10:27:07;;;;;;;8.60;6.82;;;;;;;;;;5832421;28;20105;-78
2024/01/28 10:29:58;;;;;;;6.15;5.20;;;;;;;;;;5832930;28;20122;-78
2024/01/28 10:32:49;;;;;;;12.52;6.88;;;;;;;;;;5832254;28;20046;-78
2024/01/28 10:35:39;;;;;;;13.25;8.07;;;;;;;;;;5817482;28;20038;-78
2024/01/28 10:38:32;;;;;;;11.13;7.45;;;;;;;;;;5840158;28;20046;-78
2024/01/28 10:41:23;;;;;;;9.65;8.63;;;;;;;;;;5815823;28;20054;-78
2024/01/28 10:44:15;;;;;;;18.15;10.30;;;;;;;;;;5817403;28;20050;-78
2024/01/28 10:47:10;;;;;;;12.70;7.30;;;;;;;;;;5815341;28;20056;-78
2024/01/28 10:50:07;;;;;;;2.67;2.25;;;;;;;;;;5815790;28;20415;-78
2024/01/28 10:52:59;;;;;;;4.95;3.53;;;;;;;;;;5816233;28;20120;-78
2024/01/28 10:55:51;;;;;;;3.80;3.40;;;;;;;;;;5815654;28;20078;-78
2024/01/28 10:58:42;;;;;;;5.28;3.83;;;;;;;;;;5816634;28;20053;-78
2024/01/28 11:01:34;;;;;;;5.30;3.20;;;;;;;;;;5799545;28;20050;-78
2024/01/28 11:04:25;;;;;;;3.95;3.25;;;;;;;;;;5815644;28;20419;-78
2024/01/28 11:07:16;;;;;;;6.90;3.80;;;;;;;;;;5815180;28;20125;-78
2024/01/28 11:10:09;;;;;;;5.45;2.42;;;;;;;;;;5815497;28;20504;-78
2024/01/28 11:13:04;;;;;;;8.38;3.92;;;;;;;;;;5815861;28;20492;-78
2024/01/28 11:15:55;;;;;;;14.27;4.65;;;;;;;;;;5830716;28;20041;-78
2024/01/28 11:19:00;;;;;;;12.50;3.53;;;;;;;;;;5839353;28;20412;-78
2024/01/28 11:21:52;;;;;;;8.27;4.78;;;;;;;;;;5846184;28;20046;-78
2024/01/28 11:24:52;;;;;;;7.65;4.53;;;;;;;;;;5837951;28;20057;-78
2024/01/28 11:27:49;;;;;;;3.40;3.05;;;;;;;;;;5831985;28;20093;-78
2024/01/28 11:30:40;;;;;;;7.57;3.83;;;;;;;;;;5815092;28;20053;-78
2024/01/28 11:33:34;;;;;;;11.63;4.72;;;;;;;;;;5815314;28;20129;-78
2024/01/28 11:36:28;;;;;;;5.82;4.30;;;;;;;;;;5815109;28;20054;-78
2024/01/28 11:39:34;;;;;;;5.95;2.42;;;;;;;;;;5830639;28;20042;-78
2024/01/28 11:42:25;;;;;;;4.10;1.52;;;;;;;;;;5831064;28;20050;-78
2024/01/28 11:45:16;;;;;;;2.88;2.20;;;;;;;;;;5816211;28;20141;-78
2024/01/28 11:48:09;;;;;;;3.92;2.33;;;;;;;;;;5831516;28;20125;-78
2024/01/28 11:51:01;;;;;;;3.63;3.05;;;;;;;;;;5835624;28;20085;-78
2024/01/28 11:53:52;;;;;;;10.93;2.40;;;;;;;;;;5836155;28;20047;-78
2024/01/28 11:56:43;;;;;;;2.13;1.80;;;;;;;;;;5820660;28;20113;-78
2024/01/28 11:59:35;;;;;;;1.77;1.35;;;;;;;;;;5835579;28;20046;-78
2024/01/28 12:02:26;;;;;;;3.67;2.75;;;;;;;;;;5843574;28;20487;-78
2024/01/28 12:05:17;;;;;;;4.97;3.83;;;;;;;;;;5819139;28;20050;-78
2024/01/28 12:08:08;;;;;;;7.00;4.65;;;;;;;;;;5803177;28;20479;-78
2024/01/28 12:11:03;;;;;;;7.55;3.35;;;;;;;;;;5819735;28;20472;-78
2024/01/28 12:13:54;;;;;;;3.58;3.03;;;;;;;;;;5819377;28;20427;-78
2024/01/28 12:16:45;;;;;;;3.38;2.55;;;;;;;;;;5818879;28;20071;-78
2024/01/28 12:19:39;;;;;;;6.93;3.53;;;;;;;;;;5802791;28;20144;-78
2024/01/28 12:22:37;;;;;;;7.72;3.58;;;;;;;;;;5819021;28;20049;-78
2024/01/28 12:25:28;;;;;;;7.80;4.20;;;;;;;;;;5820107;28;20141;-78
2024/01/28 12:28:22;;;;;;;5.45;3.60;;;;;;;;;;5819948;28;20420;-78
2024/01/28 12:31:13;;;;;;;4.82;4.20;;;;;;;;;;5818681;28;20048;-78
2024/01/28 12:34:15;;;;;;;4.78;4.03;;;;;;;;;;5818716;28;20050;-78
2024/01/28 12:37:06;;;;;;;5.53;3.88;;;;;;;;;;5818783;28;20121;-78
2024/01/28 12:39:58;;;;;;;8.07;3.33;;;;;;;;;;5818958;28;20046;-78
2024/01/28 12:42:50;;;;;;;9.88;5.88;;;;;;;;;;5802870;28;20034;-78
2024/01/28 12:45:41;;;;;;;4.35;3.28;;;;;;;;;;5818669;28;20045;-78
2024/01/28 12:48:32;;;;;;;12.18;3.92;;;;;;;;;;5818491;28;20089;-78
2024/01/28 12:51:23;;;;;;;4.95;2.75;;;;;;;;;;5818283;28;20050;-78
2024/01/28 12:54:14;;;;;;;9.80;4.35;;;;;;;;;;5818109;28;20508;-78
2024/01/28 12:57:05;;;;;;;7.57;5.13;;;;;;;;;;5818239;28;20507;-78
2024/01/28 12:59:58;;;;;;;9.45;4.20;;;;;;;;;;5833450;28;20464;-78
2024/01/28 13:02:48;;;;;;;25.13;5.93;;;;;;;;;;5817993;28;20416;-78
2024/01/28 13:05:40;;;;;;;7.80;4.72;;;;;;;;;;5817976;28;20050;-78
2024/01/28 13:08:30;;;;;;;9.60;4.28;;;;;;;;;;5802029;28;20073;-78
2024/01/28 13:11:21;;;;;;;5.15;4.43;;;;;;;;;;5817543;28;20053;-78
2024/01/28 13:14:14;;;;;;;11.52;7.25;;;;;;;;;;5833939;28;20133;-78
2024/01/28 13:17:05;;;;;;;6.60;3.28;;;;;;;;;;5833921;28;20076;-78
2024/01/28 13:19:56;;;;;;;5.22;4.13;;;;;;;;;;5818281;28;20519;-78
2024/01/28 13:22:47;;;;;;;10.07;4.68;;;;;;;;;;5817618;28;20149;-78
2024/01/28 13:25:38;;;;;;;5.53;3.45;;;;;;;;;;5801721;28;20357;-78
2024/01/28 13:28:28;;;;;;;38.70;18.63;;;;;;;;;;5818773;28;20056;-78
2024/01/28 13:31:19;;;;;;;43.63;22.17;;;;;;;;;;5833558;28;20057;-78
2024/01/28 13:34:10;;;;;;;37.45;18.13;;;;;;;;;;5818706;28;20045;-78
2024/01/28 13:37:02;;;;;;;41.80;18.45;;;;;;;;;;5817227;28;20054;-78
2024/01/28 13:39:53;;;;;;;24.48;15.43;;;;;;;;;;5817718;28;20121;-78
2024/01/28 13:42:44;;;;;;;30.60;14.05;;;;;;;;;;5818530;28;20512;-78
2024/01/28 13:45:34;;;;;;;19.10;10.45;;;;;;;;;;5833501;28;20492;-78
2024/01/28 13:48:25;;;;;;;23.67;13.15;;;;;;;;;;5818386;28;20492;-78
2024/01/28 13:51:16;;;;;;;15.07;8.82;;;;;;;;;;5817055;28;20397;-78
2024/01/28 13:54:07;;;;;;;7.40;4.93;;;;;;;;;;5816882;28;20121;-78
2024/01/28 13:56:58;;;;;;;7.95;5.53;;;;;;;;;;5818907;28;20050;-78
2024/01/28 13:59:49;;;;;;;11.60;8.00;;;;;;;;;;5816655;28;20051;-78
2024/01/28 14:02:41;;;;;;;20.70;8.82;;;;;;;;;;5817826;28;20042;-78
2024/01/28 14:05:34;;;;;;;14.57;10.02;;;;;;;;;;5816976;28;20418;-78
2024/01/28 14:08:27;;;;;;;6.70;4.65;;;;;;;;;;5832322;28;20273;-78
2024/01/28 14:11:18;;;;;;;8.13;4.55;;;;;;;;;;5817628;28;20050;-78
2024/01/28 14:14:09;;;;;;;9.40;5.47;;;;;;;;;;5817976;28;20050;-78
2024/01/28 14:17:00;;;;;;;5.78;4.20;;;;;;;;;;5816908;28;20042;-78
2024/01/28 14:19:51;;;;;;;4.38;2.70;;;;;;;;;;5800555;28;20045;-78
2024/01/28 14:22:42;;;;;;;12.57;4.15;;;;;;;;;;5816297;28;20412;-78
2024/01/28 14:25:33;;;;;;;4.35;3.35;;;;;;;;;;5816445;28;20052;-78
2024/01/28 14:28:24;;;;;;;9.35;3.20;;;;;;;;;;5816170;28;20047;-78
2024/01/28 14:31:15;;;;;;;4.63;3.58;;;;;;;;;;5817447;28;20065;-78
2024/01/28 14:34:05;;;;;;;3.83;2.60;;;;;;;;;;5816151;28;20415;-78
2024/01/28 14:36:56;;;;;;;10.30;4.78;;;;;;;;;;5832750;28;20042;-78
2024/01/28 14:39:49;;;;;;;6.82;2.65;;;;;;;;;;5817433;28;20046;-78
2024/01/28 14:42:41;;;;;;;3.92;2.92;;;;;;;;;;5815908;28;20120;-78
2024/01/28 14:45:32;;;;;;;6.78;4.68;;;;;;;;;;5816015;28;20053;-78
2024/01/28 14:48:23;;;;;;;10.95;5.22;;;;;;;;;;5815772;28;20520;-78
2024/01/28 14:51:14;;;;;;;6.43;3.97;;;;;;;;;;5815715;28;20073;-78
2024/01/28 14:54:06;;;;;;;8.45;5.10;;;;;;;;;;5815935;28;20054;-78
2024/01/28 14:56:56;;;;;;;14.57;3.80;;;;;;;;;;5816028;28;20066;-78
2024/01/28 14:59:48;;;;;;;5.20;2.70;;;;;;;;;;5815493;28;20070;-78
2024/01/28 15:02:39;;;;;;;4.15;2.88;;;;;;;;;;5815543;28;20077;-78
2024/01/28 15:05:29;;;;;;;3.40;2.45;;;;;;;;;;5816734;28;20082;-78
2024/01/28 15:08:20;;;;;;;4.57;3.33;;;;;;;;;;5831796;28;20049;-78
2024/01/28 15:11:11;;;;;;;6.22;3.80;;;;;;;;;;5815436;28;20042;-78
2024/01/28 15:14:02;;;;;;;9.77;3.30;;;;;;;;;;5815606;28;20046;-78
2024/01/28 15:16:53;;;;;;;2.88;1.92;;;;;;;;;;5815852;28;20047;-78
2024/01/28 15:19:44;;;;;;;5.95;2.40;;;;;;;;;;5815524;28;20046;-78
2024/01/28 15:22:35;;;;;;;4.40;2.78;;;;;;;;;;5814930;28;20043;-78
2024/01/28 15:25:26;;;;;;;7.25;3.17;;;;;;;;;;5815152;28;20492;-78
2024/01/28 15:28:17;;;;;;;5.50;3.45;;;;;;;;;;5815112;28;20053;-78
2024/01/28 15:31:15;;;;;;;4.00;3.60;;;;;;;;;;5816640;28;20397;-78
2024/01/28 15:34:06;;;;;;;8.52;3.45;;;;;;;;;;5816512;28;20046;-78
2024/01/28 15:36:57;;;;;;;3.83;3.42;;;;;;;;;;5817158;28;20416;-78
2024/01/28 15:39:48;;;;;;;4.10;3.67;;;;;;;;;;5831381;28;20583;-78
2024/01/28 15:42:39;;;;;;;5.63;3.90;;;;;;;;;;5814840;28;20042;-79
2024/01/28 15:45:30;;;;;;;8.25;4.07;;;;;;;;;;5815324;28;20356;-78
2024/01/28 15:48:22;;;;;;;6.82;4.00;;;;;;;;;;5815182;28;20050;-78
2024/01/28 15:51:13;;;;;;;6.13;4.63;;;;;;;;;;5816042;28;20046;-78
2024/01/28 15:54:03;;;;;;;7.50;3.75;;;;;;;;;;5815226;28;20061;-78
2024/01/28 15:56:54;;;;;;;6.60;3.40;;;;;;;;;;5831652;28;20046;-78
2024/01/28 15:59:46;;;;;;;8.27;5.78;;;;;;;;;;5816165;28;20420;-78
2024/01/28 16:02:50;;;;;;;7.93;5.32;;;;;;;;;;5830028;28;20045;-78
2024/01/28 16:05:41;;;;;;;8.13;6.85;;;;;;;;;;5839340;28;20046;-78
2024/01/28 16:08:32;;;;;;;14.70;9.60;;;;;;;;;;5839199;28;20133;-78
2024/01/28 16:11:22;;;;;;;8.50;5.97;;;;;;;;;;5818795;28;20057;-78
2024/01/28 16:14:13;;;;;;;11.13;8.90;;;;;;;;;;5830939;28;20096;-78
2024/01/28 16:17:04;;;;;;;10.07;8.25;;;;;;;;;;5831033;28;20420;-78
2024/01/28 16:19:55;;;;;;;9.52;7.35;;;;;;;;;;5831189;28;20389;-78
2024/01/28 16:22:46;;;;;;;8.35;6.60;;;;;;;;;;5815965;28;20049;-78
2024/01/28 16:25:36;;;;;;;9.50;7.93;;;;;;;;;;5814588;28;20415;-78
2024/01/28 16:28:27;;;;;;;7.03;6.25;;;;;;;;;;5814527;28;20061;-78
2024/01/28 16:31:19;;;;;;;9.48;5.78;;;;;;;;;;5815820;28;20061;-78
2024/01/28 16:34:10;;;;;;;7.25;4.97;;;;;;;;;;5816198;28;20046;-78
2024/01/28 16:37:03;;;;;;;9.65;6.80;;;;;;;;;;5834681;28;20444;-78
2024/01/28 16:39:54;;;;;;;12.63;8.15;;;;;;;;;;5835454;28;20050;-78
2024/01/28 16:42:46;;;;;;;22.10;14.35;;;;;;;;;;5842968;28;20057;-78
2024/01/28 16:45:37;;;;;;;25.20;17.35;;;;;;;;;;5834611;28;20070;-78
2024/01/28 16:48:28;;;;;;;22.58;11.73;;;;;;;;;;5819643;28;20046;-78
2024/01/28 16:51:19;;;;;;;32.53;17.52;;;;;;;;;;5818091;28;20081;-78
2024/01/28 16:54:10;;;;;;;18.73;10.07;;;;;;;;;;5819642;28;20039;-78
2024/01/28 16:57:01;;;;;;;10.25;6.78;;;;;;;;;;5834540;28;20050;-78
2024/01/28 16:59:52;;;;;;;13.52;9.07;;;;;;;;;;5818507;28;20050;-78
2024/01/28 17:02:42;;;;;;;13.85;9.20;;;;;;;;;;5817757;28;20050;-78